Time;durP1;ratioP1;P1;durP2;ratioP2;P2;SDS_P1;SDS_P2;PMS_P1;PMS_P2;Temp;Humidity;BMP_temperature;BMP_pressure;BME280_temperature;BME280_humidity;BME280_pressure;Samples;Min_cycle;Max_cycle;Signal;HPM_P1;HPM_P2
2023/06/13 00:02:17;;;;;;;6.43;4.93;;;;;;;25.47;37.12;101315.53;5032096;28;20030;-66
2023/06/13 00:04:43;;;;;;;7.00;5.32;;;;;;;25.50;36.50;101318.72;5032296;28;21347;-66
2023/06/13 00:07:09;;;;;;;6.20;4.97;;;;;;;25.48;36.68;101318.03;5032627;28;20112;-67
2023/06/13 00:09:35;;;;;;;7.20;4.90;;;;;;;25.47;36.76;101316.38;5031499;28;20402;-67
2023/06/13 00:12:00;;;;;;;6.30;4.68;;;;;;;25.49;36.66;101314.38;5032314;28;20064;-67
2023/06/13 00:14:26;;;;;;;6.78;4.45;;;;;;;25.48;36.39;101318.03;5031165;28;20065;-67
2023/06/13 00:16:51;;;;;;;6.18;4.78;;;;;;;25.48;36.50;101314.53;5032043;28;20092;-67
2023/06/13 00:19:18;;;;;;;5.90;4.63;;;;;;;25.48;36.68;101314.53;5031636;28;20040;-64
2023/06/13 00:21:45;;;;;;;6.10;4.32;;;;;;;25.50;36.48;101317.84;5032304;28;21324;-66
2023/06/13 00:24:11;;;;;;;6.88;4.85;;;;;;;25.49;36.31;101308.19;5030846;28;20029;-66
2023/06/13 00:26:36;;;;;;;6.43;4.78;;;;;;;25.49;36.34;101311.69;5032380;28;20102;-66
2023/06/13 00:29:02;;;;;;;7.03;4.32;;;;;;;25.50;36.01;101302.69;5032126;28;20094;-66
2023/06/13 00:31:28;;;;;;;6.40;4.47;;;;;;;25.49;36.35;101306.34;5031438;28;20539;-66
2023/06/13 00:33:57;;;;;;;6.80;4.68;;;;;;;25.46;35.94;101304.00;5031807;28;20055;-68
2023/06/13 00:36:24;;;;;;;9.80;5.13;;;;;;;25.50;35.99;101309.84;5032097;28;20486;-66
2023/06/13 00:38:51;;;;;;;6.55;4.75;;;;;;;25.50;35.99;101310.72;5031488;28;20465;-67
2023/06/13 00:41:16;;;;;;;6.93;4.60;;;;;;;25.48;36.16;101307.34;5031712;28;20074;-65
2023/06/13 00:43:42;;;;;;;6.97;4.57;;;;;;;25.47;36.18;101311.03;5031758;28;20064;-65
2023/06/13 00:46:08;;;;;;;6.63;4.93;;;;;;;25.47;35.63;101313.69;5031854;28;20328;-66
2023/06/13 00:48:35;;;;;;;6.78;4.88;;;;;;;25.48;35.79;101309.19;5031255;28;20061;-67
2023/06/13 00:51:02;;;;;;;6.10;4.45;;;;;;;25.47;35.69;101307.53;5031277;28;20028;-65
2023/06/13 00:53:31;;;;;;;7.60;5.20;;;;;;;25.45;35.62;101298.84;5031710;28;20083;-65
2023/06/13 00:55:57;;;;;;;6.38;4.57;;;;;;;25.48;35.60;101310.00;5030865;28;20425;-66
2023/06/13 00:58:23;;;;;;;7.32;4.22;;;;;;;25.48;35.53;101312.69;5031094;28;20473;-65
2023/06/13 01:00:52;;;;;;;7.40;4.85;;;;;;;25.48;35.69;101310.00;5030570;28;20043;-65
2023/06/13 01:03:19;;;;;;;6.47;4.30;;;;;;;25.47;35.70;101304.88;5030476;28;20037;-67
2023/06/13 01:05:45;;;;;;;6.45;4.28;;;;;;;25.47;35.74;101305.69;5031909;28;20036;-66
2023/06/13 01:08:16;;;;;;;5.80;4.43;;;;;;;25.42;35.75;101294.69;5029762;28;20401;-65
2023/06/13 01:10:45;;;;;;;7.60;4.72;;;;;;;25.45;36.11;101296.16;5030999;28;20082;-67
2023/06/13 01:13:31;;;;;;;7.15;4.57;;;;;;;25.47;35.46;101296.88;5030555;28;20485;-66
2023/06/13 01:16:15;;;;;;;6.32;4.22;;;;;;;25.46;35.65;101300.53;5029043;28;20380;-65
2023/06/13 01:18:44;;;;;;;6.45;4.28;;;;;;;25.45;35.36;101291.69;5031332;28;20032;-65
2023/06/13 01:21:11;;;;;;;6.53;4.38;;;;;;;25.47;35.77;101291.53;5030737;28;20034;-67
2023/06/13 01:23:57;;;;;;;5.75;4.43;;;;;;;25.46;35.42;101297.84;5030898;28;20366;-66
2023/06/13 01:26:56;;;;;;;6.43;4.85;;;;;;;25.44;35.67;101297.19;5031353;28;20393;-67
2023/06/13 01:29:21;;;;;;;6.53;4.45;;;;;;;25.46;35.37;101296.00;5030932;28;20145;-67
2023/06/13 01:31:52;;;;;;;5.63;4.07;;;;;;;25.43;35.64;101292.84;5031070;28;20124;-66
2023/06/13 01:34:18;;;;;;;6.18;4.45;;;;;;;25.41;35.60;101295.66;5030421;28;20091;-65
2023/06/13 01:36:44;;;;;;;7.07;4.82;;;;;;;25.40;35.63;101293.16;5030087;28;20045;-66
2023/06/13 01:39:09;;;;;;;7.05;4.40;;;;;;;25.42;35.57;101293.81;5030480;28;20041;-67
2023/06/13 01:41:35;;;;;;;6.50;4.40;;;;;;;25.41;35.32;101294.84;5031180;28;20506;-66
2023/06/13 01:44:04;;;;;;;6.27;4.30;;;;;;;25.42;35.67;101292.00;5030902;28;20474;-64
2023/06/13 01:46:33;;;;;;;7.07;4.30;;;;;;;25.42;35.78;101299.16;5030861;28;20321;-66
2023/06/13 01:49:32;;;;;;;6.13;4.10;;;;;;;25.42;35.22;101299.16;5029975;28;20043;-65
2023/06/13 01:52:31;;;;;;;6.40;4.20;;;;;;;25.40;35.47;101299.31;5031184;28;20039;-66
2023/06/13 01:55:14;;;;;;;5.93;4.15;;;;;;;25.39;35.29;101289.66;5031091;28;20086;-67
2023/06/13 01:57:43;;;;;;;7.03;4.22;;;;;;;25.41;35.70;101286.84;5030837;28;20036;-66
2023/06/13 02:00:13;;;;;;;8.45;4.35;;;;;;;25.39;35.63;101288.81;5030928;28;20129;-65
2023/06/13 02:02:40;;;;;;;6.43;4.18;;;;;;;25.32;35.26;101276.13;5030421;28;20123;-66
2023/06/13 02:05:08;;;;;;;6.68;4.28;;;;;;;25.38;35.35;101279.16;5031264;28;20442;-67
2023/06/13 02:07:36;;;;;;;6.60;4.00;;;;;;;25.38;35.46;101282.66;5030104;28;20072;-66
2023/06/13 02:10:05;;;;;;;7.88;4.18;;;;;;;25.37;35.29;101286.31;5030501;28;20123;-67
2023/06/13 02:12:31;;;;;;;5.75;3.92;;;;;;;25.38;35.74;101284.50;5030955;28;20150;-66
2023/06/13 02:14:57;;;;;;;6.35;4.22;;;;;;;25.37;35.45;101282.81;5030837;28;20035;-64
2023/06/13 02:17:23;;;;;;;5.33;3.80;;;;;;;25.37;35.50;101293.47;5030168;28;20045;-65
2023/06/13 02:19:49;;;;;;;7.55;4.13;;;;;;;25.37;35.60;101286.31;5030386;28;20274;-64
2023/06/13 02:22:14;;;;;;;5.63;4.07;;;;;;;25.38;35.72;101292.50;5030315;28;20026;-65
2023/06/13 02:24:40;;;;;;;6.23;4.17;;;;;;;25.35;35.37;101288.31;5030402;28;20042;-66
2023/06/13 02:27:06;;;;;;;6.07;4.10;;;;;;;25.37;35.42;101280.97;5030468;28;20316;-67
2023/06/13 02:29:33;;;;;;;9.13;4.03;;;;;;;25.35;35.34;101282.97;5030223;28;20037;-66
2023/06/13 02:31:59;;;;;;;6.30;4.05;;;;;;;25.37;35.66;101285.47;5030890;28;20040;-65
2023/06/13 02:34:24;;;;;;;6.75;4.50;;;;;;;25.33;35.19;101277.81;5030931;28;20037;-66
2023/06/13 02:36:49;;;;;;;6.20;4.15;;;;;;;25.34;35.57;101290.16;5030580;28;21051;-65
2023/06/13 02:39:15;;;;;;;6.73;4.13;;;;;;;25.34;35.09;101286.63;5029962;28;20508;-67
2023/06/13 02:41:40;;;;;;;7.30;4.33;;;;;;;25.35;35.19;101288.31;5030345;28;20282;-65
2023/06/13 02:44:05;;;;;;;7.60;4.17;;;;;;;25.35;35.43;101293.66;5030336;28;20273;-65
2023/06/13 02:46:30;;;;;;;5.68;4.20;;;;;;;25.34;35.47;101291.97;5030163;28;20371;-67
2023/06/13 02:48:56;;;;;;;5.50;4.00;;;;;;;25.33;35.24;101287.66;5033247;28;20469;-67
2023/06/13 02:51:21;;;;;;;5.30;3.80;;;;;;;25.33;35.60;101285.81;5033922;28;20029;-66
2023/06/13 02:53:46;;;;;;;6.03;4.10;;;;;;;25.33;35.23;101295.66;5033920;28;20262;-66
2023/06/13 02:56:12;;;;;;;6.47;3.90;;;;;;;25.31;35.37;101289.63;5034015;28;20765;-66
2023/06/13 02:58:37;;;;;;;6.03;3.65;;;;;;;25.31;35.14;101282.47;5033754;28;20286;-65
2023/06/13 03:01:03;;;;;;;8.13;4.22;;;;;;;25.30;35.49;101286.13;5032387;28;20492;-65
2023/06/13 03:03:29;;;;;;;5.85;3.95;;;;;;;25.29;35.08;101292.47;5033607;28;20083;-65
2023/06/13 03:05:57;;;;;;;6.30;4.03;;;;;;;25.27;35.45;101281.06;5033624;28;20108;-66
2023/06/13 03:08:23;;;;;;;7.63;4.03;;;;;;;25.28;35.21;101282.78;5033291;28;20154;-67
2023/06/13 03:10:50;;;;;;;5.63;3.80;;;;;;;25.28;34.96;101288.13;5032747;28;20048;-67
2023/06/13 03:13:18;;;;;;;5.75;3.42;;;;;;;25.26;35.64;101283.91;5033221;28;20522;-67
2023/06/13 03:15:45;;;;;;;6.45;4.25;;;;;;;25.28;35.60;101289.97;5033892;28;20553;-67
2023/06/13 03:18:11;;;;;;;5.78;3.88;;;;;;;25.27;35.12;101283.75;5032890;28;20056;-66
2023/06/13 03:20:37;;;;;;;7.80;3.90;;;;;;;25.25;35.07;101284.94;5033141;28;20097;-67
2023/06/13 03:23:03;;;;;;;5.40;3.90;;;;;;;25.24;35.08;101284.06;5032629;28;20053;-66
2023/06/13 03:25:29;;;;;;;6.38;3.90;;;;;;;25.24;35.22;101294.75;5033307;28;20469;-65
2023/06/13 03:27:55;;;;;;;5.95;4.13;;;;;;;25.22;35.20;101286.06;5033086;28;20116;-67
2023/06/13 03:30:20;;;;;;;5.90;3.75;;;;;;;25.22;35.34;101283.41;5033311;28;20120;-65
2023/06/13 03:32:45;;;;;;;7.47;4.03;;;;;;;25.22;35.21;101280.75;5032797;28;20120;-67
2023/06/13 03:35:11;;;;;;;5.47;3.70;;;;;;;25.22;35.40;101287.91;5031649;28;20108;-65
2023/06/13 03:37:36;;;;;;;6.78;3.90;;;;;;;25.22;35.25;101282.56;5033050;28;20251;-65
2023/06/13 03:40:01;;;;;;;6.57;4.30;;;;;;;25.22;35.33;101282.56;5032845;28;20037;-66
2023/06/13 03:42:27;;;;;;;7.90;4.00;;;;;;;25.22;35.04;101287.91;5032563;28;20305;-65
2023/06/13 03:44:52;;;;;;;7.63;4.40;;;;;;;25.19;34.88;101286.38;5032127;28;20037;-66
2023/06/13 03:47:17;;;;;;;6.30;4.03;;;;;;;25.20;34.94;101290.75;5032433;28;20037;-66
2023/06/13 03:49:43;;;;;;;6.78;3.75;;;;;;;25.20;35.04;101282.75;5032543;28;20116;-66
2023/06/13 03:52:09;;;;;;;5.78;3.72;;;;;;;25.18;35.52;101279.38;5032729;28;20042;-65
2023/06/13 03:54:35;;;;;;;6.75;3.90;;;;;;;25.16;35.07;101282.19;5032728;28;20029;-66
2023/06/13 03:57:00;;;;;;;6.00;4.13;;;;;;;25.19;35.12;101288.22;5031820;28;20033;-65
2023/06/13 03:59:25;;;;;;;6.55;4.00;;;;;;;25.15;35.53;101279.69;5032545;28;20259;-66
2023/06/13 04:01:50;;;;;;;5.27;3.83;;;;;;;25.17;35.49;101281.22;5032016;28;20044;-67
2023/06/13 04:04:16;;;;;;;6.13;3.70;;;;;;;25.16;35.46;101284.88;5032924;28;20746;-66
2023/06/13 04:06:47;;;;;;;6.22;3.92;;;;;;;25.14;35.05;101286.03;5032377;28;20262;-68
2023/06/13 04:09:12;;;;;;;6.63;4.50;;;;;;;25.15;34.96;101285.03;5031709;28;20025;-66
2023/06/13 04:11:37;;;;;;;6.78;3.97;;;;;;;25.15;35.30;101282.38;5032559;28;20037;-67
2023/06/13 04:14:03;;;;;;;5.40;4.05;;;;;;;25.16;35.43;101292.03;5032122;28;20129;-67
2023/06/13 04:16:28;;;;;;;6.78;4.13;;;;;;;25.16;35.09;101284.03;5032543;28;20060;-67
2023/06/13 04:18:56;;;;;;;5.82;3.95;;;;;;;25.14;35.38;101286.88;5031464;28;20033;-64
2023/06/13 04:21:24;;;;;;;5.95;3.80;;;;;;;25.13;35.39;101297.69;5032061;28;20029;-64
2023/06/13 04:23:50;;;;;;;6.13;3.83;;;;;;;25.14;35.13;101286.88;5032032;28;20597;-66
2023/06/13 04:26:18;;;;;;;7.38;3.90;;;;;;;25.14;35.13;101294.88;5032772;28;20029;-67
2023/06/13 04:28:44;;;;;;;8.65;4.20;;;;;;;25.13;35.29;101295.03;5031871;28;20378;-66
2023/06/13 04:31:10;;;;;;;6.40;4.10;;;;;;;25.13;35.26;101295.03;5032028;28;20437;-67
2023/06/13 04:33:39;;;;;;;5.95;3.75;;;;;;;25.12;35.40;101288.88;5031763;28;20061;-67
2023/06/13 04:36:08;;;;;;;5.45;3.75;;;;;;;25.13;35.33;101300.38;5031494;28;20037;-66
2023/06/13 04:38:37;;;;;;;5.70;3.72;;;;;;;25.11;35.17;101305.84;5031199;28;20037;-65
2023/06/13 04:41:03;;;;;;;5.88;3.88;;;;;;;25.13;35.47;101311.03;5031834;28;20079;-66
2023/06/13 04:43:28;;;;;;;8.35;3.65;;;;;;;25.12;35.35;101304.03;5032316;28;20037;-66
2023/06/13 04:46:02;;;;;;;7.78;4.05;;;;;;;25.12;35.20;101306.72;5032047;28;20033;-67
2023/06/13 04:48:28;;;;;;;6.68;3.70;;;;;;;25.13;35.56;101306.56;5031476;28;20029;-66
2023/06/13 04:50:54;;;;;;;6.85;4.10;;;;;;;25.12;35.02;101310.19;5031327;28;20037;-66
2023/06/13 04:53:21;;;;;;;5.75;3.83;;;;;;;25.11;35.00;101305.84;5030141;28;20465;-67
2023/06/13 04:55:48;;;;;;;6.95;4.03;;;;;;;25.11;35.12;101313.84;5031303;28;20056;-66
2023/06/13 04:58:14;;;;;;;7.10;4.10;;;;;;;25.11;35.28;101308.53;5030536;28;20047;-66
2023/06/13 05:00:39;;;;;;;7.25;4.28;;;;;;;25.11;35.07;101313.84;5031182;28;20037;-64
2023/06/13 05:03:06;;;;;;;6.93;4.25;;;;;;;25.11;35.41;101310.38;5030874;28;20029;-66
2023/06/13 05:05:32;;;;;;;6.20;4.07;;;;;;;25.11;35.56;101316.53;5030823;28;20453;-64
2023/06/13 05:07:59;;;;;;;7.50;4.10;;;;;;;25.12;35.60;101315.53;5031157;28;20116;-66
2023/06/13 05:10:25;;;;;;;6.90;3.83;;;;;;;25.12;35.15;101320.88;5030490;28;20033;-64
2023/06/13 05:12:51;;;;;;;5.72;3.83;;;;;;;25.08;35.17;101314.19;5030844;28;20508;-65
2023/06/13 05:15:18;;;;;;;7.15;3.97;;;;;;;25.09;35.44;101323.84;5030675;28;20064;-66
2023/06/13 05:17:48;;;;;;;6.28;4.40;;;;;;;25.11;35.67;101319.19;5030692;28;20072;-65
2023/06/13 05:20:14;;;;;;;5.40;3.80;;;;;;;25.12;35.26;101325.38;5030759;28;20030;-65
2023/06/13 05:22:42;;;;;;;5.43;3.80;;;;;;;25.09;35.30;101323.84;5031524;28;20033;-65
2023/06/13 05:25:09;;;;;;;5.40;3.63;;;;;;;25.12;35.51;101320.88;5030803;28;20115;-64
2023/06/13 05:27:35;;;;;;;6.90;4.13;;;;;;;25.11;35.32;101324.53;5031229;28;20033;-65
2023/06/13 05:30:00;;;;;;;6.00;3.65;;;;;;;25.13;35.20;101327.03;5030993;28;20036;-66
2023/06/13 05:32:26;;;;;;;5.90;3.85;;;;;;;25.13;35.31;101332.38;5030248;28;20039;-64
2023/06/13 05:34:51;;;;;;;6.57;4.13;;;;;;;25.12;35.60;101325.38;5030836;28;20119;-65
2023/06/13 05:37:17;;;;;;;6.60;4.28;;;;;;;25.12;35.24;101325.38;5030815;28;20095;-66
2023/06/13 05:39:43;;;;;;;5.53;3.60;;;;;;;25.11;35.62;101321.03;5030021;28;20037;-65
2023/06/13 05:42:08;;;;;;;6.25;3.85;;;;;;;25.14;35.32;101329.53;5030506;28;20419;-64
2023/06/13 05:44:33;;;;;;;6.78;4.18;;;;;;;25.11;35.54;101323.69;5030703;28;20112;-66
2023/06/13 05:46:59;;;;;;;6.93;4.17;;;;;;;25.11;35.32;101329.84;5030414;28;20029;-66
2023/06/13 05:49:24;;;;;;;6.53;4.07;;;;;;;25.14;35.59;101336.72;5031036;28;20344;-65
2023/06/13 05:51:49;;;;;;;5.50;3.83;;;;;;;25.12;35.70;101336.03;5030987;28;20214;-67
2023/06/13 05:54:15;;;;;;;6.68;4.50;;;;;;;25.11;35.72;101329.84;5030487;28;20034;-67
2023/06/13 05:56:40;;;;;;;9.27;4.68;;;;;;;25.10;33.83;101332.69;5030185;28;20039;-68
2023/06/13 05:59:05;;;;;;;7.00;4.68;;;;;;;25.08;33.13;101330.16;5030755;28;20488;-64
2023/06/13 06:01:31;;;;;;;8.55;5.20;;;;;;;25.00;32.32;101338.13;5030214;28;20040;-64
2023/06/13 06:03:56;;;;;;;9.25;5.43;;;;;;;24.84;31.93;101333.53;5030337;28;20120;-65
2023/06/13 06:06:22;;;;;;;6.85;5.03;;;;;;;24.73;32.11;101336.47;5030270;28;20120;-65
2023/06/13 06:08:47;;;;;;;8.43;4.95;;;;;;;24.62;32.46;101333.09;5029841;28;20075;-64
2023/06/13 06:11:12;;;;;;;8.60;4.83;;;;;;;24.49;32.75;101332.63;5030635;28;20121;-66
2023/06/13 06:13:38;;;;;;;14.80;5.50;;;;;;;24.45;32.70;101341.94;5028957;28;20271;-64
2023/06/13 06:16:03;;;;;;;11.93;5.17;;;;;;;24.39;32.72;101345.19;5030389;28;20789;-64
2023/06/13 06:18:28;;;;;;;7.93;5.00;;;;;;;24.33;33.31;101343.97;5029793;28;20270;-64
2023/06/13 06:20:54;;;;;;;11.03;5.27;;;;;;;24.25;32.92;101334.09;5030085;28;20033;-65
2023/06/13 06:23:19;;;;;;;7.30;4.97;;;;;;;24.22;33.25;101337.06;5032947;28;20398;-66
2023/06/13 06:25:45;;;;;;;7.90;4.68;;;;;;;24.21;33.20;101338.06;5032671;28;20270;-64
2023/06/13 06:28:10;;;;;;;6.53;4.57;;;;;;;24.18;33.72;101332.19;5033843;28;20087;-64
2023/06/13 06:30:36;;;;;;;9.55;5.45;;;;;;;24.15;34.17;101330.69;5032970;28;20051;-65
2023/06/13 06:33:01;;;;;;;8.45;5.60;;;;;;;24.15;34.74;101338.66;5032910;28;20029;-67
2023/06/13 06:35:26;;;;;;;9.10;5.32;;;;;;;24.12;34.80;101333.66;5033857;28;20029;-66
2023/06/13 06:37:51;;;;;;;11.10;5.82;;;;;;;24.10;35.44;101335.63;5032685;28;20030;-67
2023/06/13 06:40:17;;;;;;;10.97;5.47;;;;;;;24.03;35.21;101331.91;5029910;28;20382;-66
2023/06/13 06:42:42;;;;;;;14.93;5.32;;;;;;;23.96;35.24;101325.50;5031735;28;20294;-68
2023/06/13 06:45:12;;;;;;;8.80;5.17;;;;;;;23.97;35.35;101327.19;5024136;28;20060;-68
2023/06/13 06:47:38;;;;;;;9.43;5.53;;;;;;;23.98;35.28;101329.69;5033335;28;20800;-69
2023/06/13 06:50:03;;;;;;;14.38;5.47;;;;;;;23.96;35.48;101329.00;5032010;28;20057;-66
2023/06/13 06:52:28;;;;;;;8.35;5.22;;;;;;;24.01;35.48;101332.03;5031914;28;20662;-68
2023/06/13 06:54:55;;;;;;;9.50;5.20;;;;;;;24.05;35.08;101328.09;5033724;28;20108;-67
2023/06/13 06:57:20;;;;;;;8.23;4.90;;;;;;;24.06;34.36;101319.09;5034061;28;20353;-67
2023/06/13 06:59:45;;;;;;;10.20;5.32;;;;;;;24.10;34.37;101319.66;5034373;28;20124;-68
2023/06/13 07:02:11;;;;;;;8.65;4.90;;;;;;;24.12;34.82;101325.66;5033387;28;20111;-66
2023/06/13 07:04:36;;;;;;;6.78;4.70;;;;;;;24.13;35.11;101323.81;5029257;28;20033;-66
2023/06/13 07:07:01;;;;;;;10.35;5.30;;;;;;;24.14;34.90;101329.00;5032665;28;20048;-66
2023/06/13 07:09:27;;;;;;;7.45;5.15;;;;;;;24.16;34.84;101324.34;5033307;28;20029;-65
2023/06/13 07:11:56;;;;;;;8.07;4.63;;;;;;;24.21;34.83;101329.22;5033829;28;20040;-65
2023/06/13 07:14:22;;;;;;;11.68;5.20;;;;;;;24.25;34.85;101341.25;5033268;28;20265;-65
2023/06/13 07:16:47;;;;;;;9.43;4.82;;;;;;;24.30;34.73;101340.78;5032340;28;20049;-66
2023/06/13 07:19:12;;;;;;;9.38;4.55;;;;;;;24.32;34.84;101342.28;5033003;28;20115;-66
2023/06/13 07:21:38;;;;;;;7.88;5.03;;;;;;;24.31;35.33;101337.13;5032317;28;20037;-65
2023/06/13 07:24:03;;;;;;;9.03;4.80;;;;;;;24.34;35.08;101343.00;5031494;28;20043;-68
2023/06/13 07:26:29;;;;;;;8.07;4.38;;;;;;;24.35;35.26;101339.31;5033336;28;20277;-66
2023/06/13 07:28:55;;;;;;;8.20;4.70;;;;;;;24.42;35.37;101344.91;5031570;28;20103;-66
2023/06/13 07:31:20;;;;;;;6.32;4.20;;;;;;;24.45;35.04;101341.94;5033325;28;20025;-68
2023/06/13 07:33:46;;;;;;;9.02;4.35;;;;;;;24.49;35.30;101337.13;5032171;28;20047;-67
2023/06/13 07:36:11;;;;;;;7.05;4.30;;;;;;;24.55;35.67;101339.16;5031679;28;20065;-66
2023/06/13 07:38:37;;;;;;;8.40;4.65;;;;;;;24.55;35.77;101341.81;5032209;28;20091;-67
2023/06/13 07:41:03;;;;;;;8.75;4.70;;;;;;;24.57;35.64;101330.03;5032248;28;20497;-66
2023/06/13 07:43:29;;;;;;;8.77;4.85;;;;;;;24.61;35.24;101328.75;5032776;28;20029;-67
2023/06/13 07:45:54;;;;;;;7.10;4.70;;;;;;;24.67;35.38;101334.44;5032999;28;20047;-67
2023/06/13 07:48:19;;;;;;;11.48;4.90;;;;;;;24.68;35.89;101331.63;5031676;28;20739;-67
2023/06/13 07:50:46;;;;;;;6.78;4.25;;;;;;;24.68;35.51;101326.28;5033176;28;20595;-66
2023/06/13 07:53:11;;;;;;;7.60;4.55;;;;;;;24.72;35.75;101332.13;5032365;28;20033;-67
2023/06/13 07:55:37;;;;;;;6.32;4.43;;;;;;;24.73;35.80;101334.63;5032868;28;20080;-66
2023/06/13 07:58:03;;;;;;;8.23;4.63;;;;;;;24.77;35.75;101343.19;5031734;28;20463;-66
2023/06/13 08:00:29;;;;;;;7.70;4.63;;;;;;;24.78;35.86;101339.50;5032587;28;20036;-66
2023/06/13 08:02:55;;;;;;;7.30;4.40;;;;;;;24.79;35.64;101341.19;5032412;28;20029;-66
2023/06/13 08:05:20;;;;;;;7.38;4.50;;;;;;;24.80;35.67;101337.50;5032005;28;20059;-68
2023/06/13 08:07:45;;;;;;;9.70;5.55;;;;;;;24.83;36.00;101344.38;5031803;28;20040;-66
2023/06/13 08:10:11;;;;;;;7.68;4.20;;;;;;;24.83;35.59;101336.38;5031607;28;20030;-67
2023/06/13 08:12:36;;;;;;;8.70;4.15;;;;;;;24.81;35.92;101334.69;5032046;28;20114;-67
2023/06/13 08:15:03;;;;;;;7.78;4.60;;;;;;;24.84;36.02;101333.53;5031834;28;20040;-66
2023/06/13 08:17:28;;;;;;;7.22;4.57;;;;;;;24.84;36.21;101341.53;5031860;28;20382;-67
2023/06/13 08:19:54;;;;;;;7.20;4.57;;;;;;;24.87;36.11;101332.41;5031944;28;20044;-67
2023/06/13 08:22:20;;;;;;;7.80;4.57;;;;;;;24.87;35.70;101338.56;5031735;28;20030;-67
2023/06/13 08:24:45;;;;;;;8.15;4.45;;;;;;;24.89;36.03;101335.75;5032195;28;20029;-68
2023/06/13 08:27:11;;;;;;;6.70;4.60;;;;;;;24.88;35.94;101326.91;5031892;28;20025;-67
2023/06/13 08:29:36;;;;;;;5.95;4.20;;;;;;;24.89;35.93;101336.56;5031360;28;20124;-65
2023/06/13 08:32:03;;;;;;;7.50;4.38;;;;;;;24.90;36.36;101340.09;5031799;28;20095;-67
2023/06/13 08:34:28;;;;;;;6.38;4.25;;;;;;;24.91;35.88;101339.94;5032635;28;20098;-68
2023/06/13 08:36:53;;;;;;;6.78;4.43;;;;;;;24.92;36.03;101332.75;5031615;28;20513;-66
2023/06/13 08:39:20;;;;;;;6.90;4.78;;;;;;;24.91;36.32;101326.59;5031802;28;20032;-67
2023/06/13 08:41:46;;;;;;;8.00;4.20;;;;;;;24.95;36.41;101327.13;5031092;28;20028;-67
2023/06/13 08:44:11;;;;;;;6.53;4.25;;;;;;;24.93;35.97;101313.94;5031316;28;20589;-67
2023/06/13 08:46:36;;;;;;;6.18;3.97;;;;;;;24.96;36.10;101321.63;5031164;28;20025;-64
2023/06/13 08:49:03;;;;;;;7.35;4.68;;;;;;;24.97;36.58;101314.44;5031320;28;20029;-65
2023/06/13 08:51:32;;;;;;;8.60;4.35;;;;;;;24.95;36.65;101316.44;5031622;28;20056;-66
2023/06/13 08:54:05;;;;;;;6.35;4.30;;;;;;;24.97;36.31;101315.28;5031769;28;20033;-66
2023/06/13 08:56:35;;;;;;;5.70;3.83;;;;;;;24.97;36.46;101314.44;5031597;28;20040;-66
2023/06/13 08:59:07;;;;;;;6.57;4.18;;;;;;;24.97;36.60;101320.63;5031416;28;20123;-67
2023/06/13 09:01:34;;;;;;;8.90;4.53;;;;;;;24.99;36.26;101313.31;5031153;28;20032;-66
2023/06/13 09:04:00;;;;;;;8.30;3.88;;;;;;;25.01;36.09;101307.81;5031600;28;20033;-66
2023/06/13 09:06:27;;;;;;;8.02;4.38;;;;;;;24.99;36.01;101307.97;5032000;28;20045;-67
2023/06/13 09:08:53;;;;;;;6.70;4.43;;;;;;;25.01;36.09;101307.81;5031430;28;20850;-66
2023/06/13 09:11:19;;;;;;;7.10;4.25;;;;;;;25.00;36.36;101308.81;5031324;28;20037;-65
2023/06/13 09:13:46;;;;;;;7.03;4.57;;;;;;;25.02;36.40;101305.97;5030662;28;20056;-67
2023/06/13 09:16:11;;;;;;;6.07;4.00;;;;;;;25.03;35.99;101311.16;5030978;28;20099;-66
2023/06/13 09:18:42;;;;;;;7.43;4.80;;;;;;;25.02;36.61;101308.66;5030126;28;20032;-68
2023/06/13 09:21:08;;;;;;;7.47;4.32;;;;;;;25.02;36.68;101305.97;5031362;28;20041;-68
2023/06/13 09:23:34;;;;;;;7.35;4.70;;;;;;;25.03;36.24;101302.34;5030708;28;20036;-67
2023/06/13 09:26:01;;;;;;;6.50;4.32;;;;;;;25.05;36.73;101305.66;5030703;28;20067;-71
2023/06/13 09:28:32;;;;;;;10.23;4.65;;;;;;;25.11;37.05;101313.03;5027723;28;20033;-65
2023/06/13 09:30:58;;;;;;;7.13;4.30;;;;;;;25.17;37.20;101307.88;5029506;28;20041;-65
2023/06/13 09:33:23;;;;;;;10.75;4.93;;;;;;;25.20;36.82;101305.88;5030101;28;20856;-68
2023/06/13 09:35:50;;;;;;;9.05;4.68;;;;;;;25.22;37.00;101298.59;5029514;28;20039;-69
2023/06/13 09:38:21;;;;;;;6.28;4.20;;;;;;;25.23;36.93;101292.22;5030256;28;20068;-70
2023/06/13 09:40:46;;;;;;;9.05;3.92;;;;;;;25.25;36.88;101290.25;5029812;28;20049;-69
2023/06/13 09:43:13;;;;;;;8.02;4.50;;;;;;;25.28;36.65;101300.63;5030426;28;20112;-68
2023/06/13 09:45:39;;;;;;;6.80;4.30;;;;;;;25.28;36.90;101290.78;5030254;28;20064;-68
2023/06/13 09:48:05;;;;;;;6.07;4.18;;;;;;;25.31;36.39;101292.28;5030111;28;20378;-68
2023/06/13 09:50:31;;;;;;;19.67;4.68;;;;;;;25.31;37.32;101293.13;5028655;28;20040;-68
2023/06/13 09:52:58;;;;;;;8.80;4.25;;;;;;;25.34;37.08;101302.63;5030593;28;20036;-69
2023/06/13 09:55:23;;;;;;;8.30;3.95;;;;;;;25.37;36.59;101302.31;5030492;28;20045;-67
2023/06/13 09:57:52;;;;;;;5.88;4.32;;;;;;;25.39;36.57;101299.47;5034661;28;20479;-67
2023/06/13 10:00:17;;;;;;;7.10;3.90;;;;;;;25.41;36.35;101293.00;5033338;28;20362;-64
2023/06/13 10:02:44;;;;;;;9.85;4.18;;;;;;;25.43;36.77;101291.00;5033685;28;20040;-69
2023/06/13 10:05:12;;;;;;;9.98;4.32;;;;;;;25.45;37.03;101288.16;5033975;28;20030;-67
2023/06/13 10:07:37;;;;;;;7.38;4.00;;;;;;;25.48;36.92;101288.66;5033580;28;20056;-65
2023/06/13 10:10:02;;;;;;;9.27;4.10;;;;;;;25.49;37.00;101290.34;5033676;28;20461;-66
2023/06/13 10:12:31;;;;;;;8.82;4.10;;;;;;;25.49;36.99;101287.69;5034310;28;20392;-67
2023/06/13 10:15:00;;;;;;;5.88;3.88;;;;;;;25.49;37.03;101292.19;5033097;28;20068;-66
2023/06/13 10:17:29;;;;;;;13.80;4.65;;;;;;;25.52;37.16;101291.88;5034353;28;20447;-67
2023/06/13 10:20:01;;;;;;;11.43;4.30;;;;;;;25.52;37.23;101294.53;5032964;28;20048;-67
2023/06/13 10:22:26;;;;;;;7.78;3.85;;;;;;;25.56;37.13;101290.53;5034036;28;20089;-69
2023/06/13 10:24:54;;;;;;;7.40;4.50;;;;;;;25.56;36.89;101287.03;5033470;28;20516;-69
2023/06/13 10:27:22;;;;;;;7.00;3.70;;;;;;;25.57;36.84;101278.03;5033297;28;20036;-67
2023/06/13 10:30:16;;;;;;;7.68;4.07;;;;;;;25.57;36.91;101286.88;5032633;28;20029;-67
2023/06/13 10:32:51;;;;;;;7.15;4.57;;;;;;;25.62;36.89;101294.38;5033762;28;20037;-68
2023/06/13 10:35:38;;;;;;;8.93;4.00;;;;;;;25.64;36.88;101292.38;5033327;28;20026;-67
2023/06/13 10:38:26;;;;;;;7.25;3.80;;;;;;;25.64;37.26;101282.56;5032678;28;20716;-66
2023/06/13 10:40:51;;;;;;;9.05;3.97;;;;;;;25.67;36.66;101292.88;5033276;28;20033;-64
2023/06/13 10:43:23;;;;;;;6.77;3.77;;;;;;;25.64;36.81;101279.03;5033185;28;20056;-66
2023/06/13 10:45:51;;;;;;;5.85;3.78;;;;;;;25.66;36.69;101287.72;5033081;28;20020;-67
2023/06/13 10:48:30;;;;;;;8.38;4.03;;;;;;;25.67;36.78;101286.72;5033983;28;20025;-68
2023/06/13 10:50:56;;;;;;;8.15;3.90;;;;;;;25.66;36.90;101285.91;5032679;28;20052;-68
2023/06/13 10:53:27;;;;;;;9.90;3.80;;;;;;;25.64;37.05;101282.56;5032801;28;20076;-66
2023/06/13 10:56:00;;;;;;;7.97;3.92;;;;;;;25.67;37.04;101284.88;5033089;28;20478;-68
2023/06/13 10:58:25;;;;;;;5.35;3.65;;;;;;;25.70;36.91;101273.03;5032372;28;20122;-67
2023/06/13 11:00:51;;;;;;;7.13;3.80;;;;;;;25.68;36.79;101281.22;5032895;28;20040;-67
2023/06/13 11:03:16;;;;;;;5.53;3.70;;;;;;;25.71;37.02;101272.88;5032563;28;20029;-68
2023/06/13 11:05:44;;;;;;;9.98;3.95;;;;;;;25.72;36.94;101271.03;5032403;28;20033;-67
2023/06/13 11:08:18;;;;;;;7.63;3.95;;;;;;;25.71;36.60;101259.53;5031258;28;20127;-68
2023/06/13 11:10:45;;;;;;;5.88;3.83;;;;;;;25.74;36.89;101265.53;5029332;28;20037;-67
2023/06/13 11:13:25;;;;;;;5.80;3.83;;;;;;;25.72;37.09;101268.38;5032279;28;20139;-66
2023/06/13 11:15:55;;;;;;;7.05;3.67;;;;;;;25.73;36.95;101251.38;5029767;28;20269;-68
2023/06/13 11:18:20;;;;;;;6.30;3.88;;;;;;;25.72;36.71;101249.69;5030116;28;20049;-68
2023/06/13 11:20:46;;;;;;;6.97;3.53;;;;;;;25.71;36.35;101251.53;5030764;28;20461;-65
2023/06/13 11:23:13;;;;;;;10.75;4.32;;;;;;;25.76;36.75;101266.22;5032769;28;20022;-64
2023/06/13 11:25:38;;;;;;;7.05;3.65;;;;;;;25.73;36.78;101258.53;5031877;28;20029;-68